createdAt,value
2019-03-24T00:01:54.469Z,9.35
2019-03-24T00:04:27.516Z,9.36
2019-03-24T00:07:00.195Z,9.41
2019-03-24T00:09:32.909Z,9.43
2019-03-24T00:12:05.834Z,9.41
2019-03-24T00:14:38.565Z,9.44
2019-03-24T00:17:11.263Z,9.44
2019-03-24T00:19:43.931Z,9.44
2019-03-24T00:22:16.624Z,9.49
2019-03-24T00:24:49.471Z,9.48
2019-03-24T00:27:24.638Z,9.47
2019-03-24T00:29:59.056Z,9.46
2019-03-24T00:32:31.742Z,9.47
2019-03-24T00:35:04.410Z,9.43
2019-03-24T00:37:37.112Z,9.40
2019-03-24T00:40:10.070Z,9.40
2019-03-24T00:42:43.126Z,9.39
2019-03-24T00:45:16.030Z,9.37
2019-03-24T00:47:49.552Z,9.33
2019-03-24T00:50:22.330Z,9.33
2019-03-24T00:52:55.038Z,9.32
2019-03-24T00:55:27.753Z,9.31
2019-03-24T00:58:00.479Z,9.32
2019-03-24T01:00:48.234Z,9.30
2019-03-24T01:03:21.213Z,9.32
2019-03-24T01:05:53.950Z,9.32
2019-03-24T01:08:26.644Z,9.30
2019-03-24T01:10:59.271Z,9.30
2019-03-24T01:13:31.911Z,9.32
2019-03-24T01:16:04.644Z,9.31
2019-03-24T01:18:37.289Z,9.33
2019-03-24T01:21:10.026Z,9.35
2019-03-24T01:23:42.762Z,9.37
2019-03-24T01:26:15.398Z,9.34
2019-03-24T01:28:48.087Z,9.34
2019-03-24T01:31:20.836Z,9.33
2019-03-24T01:33:53.553Z,9.32
2019-03-24T01:36:26.237Z,9.31
2019-03-24T01:38:58.969Z,9.30
2019-03-24T01:41:31.627Z,9.28
2019-03-24T01:44:04.419Z,9.28
2019-03-24T01:46:37.111Z,9.30
2019-03-24T01:49:09.833Z,9.32
2019-03-24T01:51:42.517Z,9.28
2019-03-24T01:54:15.400Z,9.36
2019-03-24T01:56:48.086Z,9.38
2019-03-24T01:59:20.739Z,9.28
2019-03-24T02:01:53.430Z,9.23
2019-03-24T02:04:26.155Z,9.21
2019-03-24T02:06:58.801Z,9.21
2019-03-24T02:09:31.473Z,9.17
2019-03-24T02:12:04.357Z,9.13
2019-03-24T02:14:37.017Z,9.13
2019-03-24T02:17:09.689Z,9.13
2019-03-24T02:19:42.309Z,9.13
2019-03-24T02:22:14.982Z,9.11
2019-03-24T02:24:47.655Z,9.08
2019-03-24T02:27:20.393Z,9.09
2019-03-24T02:29:52.989Z,9.07
2019-03-24T02:32:25.670Z,9.08
2019-03-24T02:34:58.292Z,9.06
2019-03-24T02:37:31.057Z,9.07
2019-03-24T02:40:03.777Z,9.06
2019-03-24T02:42:36.544Z,9.02
2019-03-24T02:45:09.684Z,9.01
2019-03-24T02:47:42.464Z,8.98
2019-03-24T02:50:15.409Z,8.97
2019-03-24T02:52:48.102Z,8.96
2019-03-24T02:55:20.793Z,8.94
2019-03-24T02:57:54.869Z,8.96
2019-03-24T03:00:27.682Z,8.94
2019-03-24T03:03:00.405Z,8.95
2019-03-24T03:05:33.110Z,8.93
2019-03-24T03:08:05.844Z,8.89
2019-03-24T03:10:38.521Z,8.88
2019-03-24T03:13:11.240Z,8.86
2019-03-24T03:15:43.924Z,8.82
2019-03-24T03:18:16.626Z,8.82
2019-03-24T03:20:49.255Z,8.80
2019-03-24T03:23:21.953Z,8.79
2019-03-24T03:25:54.557Z,8.74
2019-03-24T03:28:27.255Z,8.71
2019-03-24T03:31:00.041Z,8.67
2019-03-24T03:33:33.331Z,8.64
2019-03-24T03:36:06.008Z,8.60
2019-03-24T03:38:38.636Z,8.54
2019-03-24T03:41:11.343Z,8.52
2019-03-24T03:43:44.046Z,8.46
2019-03-24T03:46:16.797Z,8.43
2019-03-24T03:48:49.387Z,8.38
2019-03-24T03:51:22.026Z,8.28
2019-03-24T03:53:54.748Z,8.19
2019-03-24T03:56:27.441Z,8.13
2019-03-24T03:59:00.081Z,8.09
2019-03-24T04:01:32.797Z,8.01
2019-03-24T04:04:05.477Z,7.96
2019-03-24T04:06:38.118Z,7.90
2019-03-24T04:09:10.756Z,7.77
2019-03-24T04:11:43.397Z,7.68
2019-03-24T04:14:16.046Z,7.57
2019-03-24T04:16:48.685Z,7.48
2019-03-24T04:19:21.519Z,7.35
2019-03-24T04:21:54.117Z,7.28
2019-03-24T04:24:26.802Z,7.13
2019-03-24T04:26:59.437Z,7.14
2019-03-24T04:29:32.046Z,7.03
2019-03-24T04:32:04.693Z,6.83
2019-03-24T04:34:37.303Z,6.80
2019-03-24T04:37:10.000Z,6.59
2019-03-24T04:39:42.671Z,6.65
2019-03-24T04:42:15.373Z,6.51
2019-03-24T04:44:48.140Z,6.41
2019-03-24T04:47:20.798Z,6.26
2019-03-24T04:49:53.520Z,6.18
2019-03-24T04:52:26.236Z,6.06
2019-03-24T04:54:58.863Z,5.98
2019-03-24T04:57:33.531Z,6.02
2019-03-24T05:00:07.528Z,5.93
2019-03-24T05:02:40.365Z,5.88
2019-03-24T05:05:13.480Z,5.97
2019-03-24T05:07:46.272Z,5.91
2019-03-24T05:10:29.766Z,5.66
2019-03-24T05:13:02.386Z,5.51
2019-03-24T05:15:35.054Z,5.54
2019-03-24T05:18:07.762Z,5.48
2019-03-24T05:20:40.632Z,5.56
2019-03-24T05:23:13.396Z,5.46
2019-03-24T05:25:46.254Z,5.39
2019-03-24T05:28:18.948Z,5.45
2019-03-24T05:30:54.251Z,5.34
2019-03-24T05:33:28.466Z,5.31
2019-03-24T05:36:01.197Z,5.32
2019-03-24T05:38:34.112Z,5.39
2019-03-24T05:41:07.122Z,5.38
2019-03-24T05:43:39.813Z,5.45
2019-03-24T05:46:12.421Z,5.48
2019-03-24T05:48:45.121Z,5.53
2019-03-24T05:51:17.808Z,5.62
2019-03-24T05:53:50.469Z,5.67
2019-03-24T05:56:23.195Z,5.69
2019-03-24T05:58:55.908Z,5.72
2019-03-24T06:01:28.511Z,5.76
2019-03-24T06:04:01.444Z,5.78
2019-03-24T06:06:34.128Z,5.83
2019-03-24T06:09:08.744Z,5.87
2019-03-24T06:11:41.464Z,5.93
2019-03-24T06:14:14.162Z,5.99
2019-03-24T06:16:46.824Z,6.04
2019-03-24T06:19:20.328Z,6.10
2019-03-24T06:21:53.178Z,6.15
2019-03-24T06:24:26.256Z,6.20
2019-03-24T06:26:59.029Z,6.29
2019-03-24T06:29:33.641Z,6.35
2019-03-24T06:32:06.503Z,6.42
2019-03-24T06:34:39.245Z,6.52
2019-03-24T06:37:12.001Z,6.60
2019-03-24T06:39:44.727Z,6.73
2019-03-24T06:42:17.608Z,6.86
2019-03-24T06:44:50.570Z,7.05
2019-03-24T06:47:23.930Z,7.08
2019-03-24T06:49:58.252Z,7.18
2019-03-24T06:52:34.464Z,7.24
2019-03-24T06:55:07.727Z,7.38
2019-03-24T06:57:44.763Z,7.51
2019-03-24T07:00:18.103Z,7.57
2019-03-24T07:02:50.875Z,7.66
2019-03-24T07:05:24.166Z,8.00
2019-03-24T07:07:58.526Z,8.14
2019-03-24T07:10:31.402Z,8.07
2019-03-24T07:13:05.888Z,8.06
2019-03-24T07:15:40.043Z,8.17
2019-03-24T07:18:12.963Z,8.03
2019-03-24T07:20:45.892Z,7.99
2019-03-24T07:23:18.659Z,7.97
2019-03-24T07:25:53.021Z,8.06
2019-03-24T07:28:26.191Z,8.09
2019-03-24T07:31:05.500Z,8.17
2019-03-24T07:33:41.613Z,8.20
2019-03-24T07:36:14.715Z,8.05
2019-03-24T07:38:47.939Z,8.08
2019-03-24T07:41:21.151Z,8.12
2019-03-24T07:43:54.403Z,8.18
2019-03-24T07:46:32.191Z,8.28
2019-03-24T07:49:05.319Z,8.32
2019-03-24T07:51:47.295Z,8.37
2019-03-24T07:54:35.114Z,8.43
2019-03-24T07:57:07.946Z,8.56
2019-03-24T07:59:41.163Z,8.63
2019-03-24T08:02:14.057Z,8.69
2019-03-24T08:04:46.840Z,8.81
2019-03-24T08:07:20.223Z,8.98
2019-03-24T08:09:53.693Z,9.08
2019-03-24T08:12:26.597Z,9.15
2019-03-24T08:15:00.083Z,9.09
2019-03-24T08:17:33.455Z,9.15
2019-03-24T08:20:08.152Z,9.22
2019-03-24T08:22:41.064Z,9.36
2019-03-24T08:25:14.518Z,9.54
2019-03-24T08:27:47.523Z,9.57
2019-03-24T08:30:37.607Z,9.80
2019-03-24T08:33:10.679Z,10.27
2019-03-24T08:35:43.891Z,10.63
2019-03-24T08:38:17.053Z,10.33
2019-03-24T08:40:50.144Z,10.39
2019-03-24T08:43:24.249Z,10.52
2019-03-24T08:45:57.151Z,10.56
2019-03-24T08:48:40.494Z,10.25
2019-03-24T08:51:07.198Z,10.02
2019-03-24T08:53:40.242Z,10.25
2019-03-24T08:56:13.548Z,10.40
2019-03-24T08:58:46.354Z,10.39
2019-03-24T09:01:24.227Z,10.28
2019-03-24T09:03:57.141Z,10.58
2019-03-24T09:06:30.095Z,10.62
2019-03-24T09:09:03.372Z,10.81
2019-03-24T09:11:36.715Z,11.01
2019-03-24T09:14:09.903Z,10.09
2019-03-24T09:16:43.374Z,10.68
2019-03-24T09:34:55.077Z,13.70
2019-03-24T09:37:28.105Z,13.96
2019-03-24T09:40:04.694Z,12.40
2019-03-24T09:42:38.308Z,13.56
2019-03-24T09:45:11.532Z,12.82
2019-03-24T09:47:45.407Z,13.45
2019-03-24T09:50:18.157Z,14.22
2019-03-24T09:52:50.878Z,13.26
2019-03-24T09:55:23.787Z,13.39
2019-03-24T09:57:56.713Z,13.81
2019-03-24T10:00:29.446Z,12.52
2019-03-24T10:03:02.343Z,12.56
2019-03-24T10:05:35.155Z,11.82
2019-03-24T10:08:09.162Z,12.04
2019-03-24T10:10:42.142Z,12.42
2019-03-24T10:13:15.013Z,12.39
2019-03-24T10:15:47.735Z,12.74
2019-03-24T10:18:20.555Z,13.34
2019-03-24T10:20:53.313Z,13.52
2019-03-24T10:23:26.176Z,12.50
2019-03-24T10:25:58.936Z,12.18
2019-03-24T10:28:31.794Z,13.01
2019-03-24T10:31:04.506Z,12.96
2019-03-24T10:33:41.388Z,12.02
2019-03-24T10:36:14.274Z,12.01
2019-03-24T10:38:47.170Z,11.77
2019-03-24T10:41:20.041Z,11.52
2019-03-24T10:43:53.010Z,10.96
2019-03-24T10:46:25.723Z,11.42
2019-03-24T10:48:58.571Z,11.63
2019-03-24T10:51:31.385Z,11.86
2019-03-24T10:54:04.253Z,11.77
2019-03-24T10:56:37.906Z,11.85
2019-03-24T10:59:10.835Z,12.01
2019-03-24T11:01:43.452Z,12.42
2019-03-24T11:04:16.214Z,13.14
2019-03-24T11:06:48.963Z,13.69
2019-03-24T11:09:24.398Z,14.23
2019-03-24T11:11:57.201Z,14.86
2019-03-24T11:14:31.999Z,15.07
2019-03-24T11:17:07.800Z,15.02
2019-03-24T11:19:40.312Z,14.83
2019-03-24T11:22:12.962Z,14.52
2019-03-24T11:24:45.808Z,14.80
2019-03-24T11:27:18.577Z,14.28
2019-03-24T11:29:51.421Z,13.78
2019-03-24T11:32:24.245Z,13.43
2019-03-24T11:34:57.121Z,13.31
2019-03-24T11:37:29.836Z,13.08
2019-03-24T11:40:02.588Z,12.53
2019-03-24T11:42:35.385Z,12.74
2019-03-24T11:45:08.949Z,12.22
2019-03-24T11:47:41.678Z,12.25
2019-03-24T11:50:15.212Z,12.53
2019-03-24T11:52:52.917Z,12.90
2019-03-24T11:55:27.309Z,13.09
2019-03-24T11:58:06.065Z,13.49
2019-03-24T12:00:47.570Z,13.53
2019-03-24T12:03:25.419Z,12.76
2019-03-24T12:06:13.627Z,13.30
2019-03-24T12:08:38.851Z,12.90
2019-03-24T12:11:11.773Z,12.71
2019-03-24T12:13:44.657Z,12.40
2019-03-24T12:16:17.433Z,12.31
2019-03-24T12:18:54.954Z,12.19
2019-03-24T12:21:27.525Z,12.13
2019-03-24T12:24:00.440Z,12.25
2019-03-24T12:26:37.482Z,12.19
2019-03-24T12:29:10.373Z,12.12
2019-03-24T12:31:43.145Z,12.59
2019-03-24T12:34:21.253Z,12.43
2019-03-24T12:36:55.210Z,12.52
2019-03-24T12:39:27.933Z,12.66
2019-03-24T12:42:04.842Z,13.31
2019-03-24T12:44:37.913Z,13.35
2019-03-24T12:47:13.222Z,13.71
2019-03-24T12:49:48.901Z,13.72
2019-03-24T12:52:25.222Z,13.35
2019-03-24T12:55:01.274Z,13.41
2019-03-24T12:57:38.081Z,13.46
2019-03-24T13:00:13.304Z,13.50
2019-03-24T13:02:47.268Z,12.96
2019-03-24T13:05:20.116Z,12.84
2019-03-24T13:07:54.536Z,12.71
2019-03-24T13:10:27.549Z,12.57
2019-03-24T13:13:00.446Z,12.59
2019-03-24T13:15:33.384Z,12.62
2019-03-24T13:18:06.306Z,12.62
2019-03-24T13:20:41.251Z,13.00
2019-03-24T13:23:14.057Z,13.26
2019-03-24T13:25:50.671Z,13.23
2019-03-24T13:28:23.760Z,13.07
2019-03-24T13:30:56.779Z,13.27
2019-03-24T13:33:32.060Z,12.98
2019-03-24T13:36:10.100Z,12.84
2019-03-24T13:38:42.848Z,12.72
2019-03-24T13:41:15.772Z,12.53
2019-03-24T13:43:48.834Z,12.30
2019-03-24T13:46:21.671Z,12.03
2019-03-24T13:48:55.170Z,11.90
2019-03-24T13:51:28.024Z,11.91
2019-03-24T13:54:02.195Z,11.87
2019-03-24T13:56:35.099Z,11.92
2019-03-24T13:59:08.292Z,11.81
2019-03-24T14:01:41.061Z,11.85
2019-03-24T14:04:18.038Z,11.86
2019-03-24T14:06:50.828Z,11.72
2019-03-24T14:09:23.478Z,11.69
2019-03-24T14:11:56.488Z,11.66
2019-03-24T14:14:29.184Z,11.77
2019-03-24T14:17:03.297Z,11.72
2019-03-24T14:19:36.139Z,11.73
2019-03-24T14:22:08.996Z,11.71
2019-03-24T14:24:41.838Z,11.89
2019-03-24T14:27:14.640Z,12.03
2019-03-24T14:29:47.702Z,12.25
2019-03-24T14:32:20.589Z,12.37
2019-03-24T14:34:53.580Z,12.23
2019-03-24T14:37:27.698Z,12.36
2019-03-24T14:40:00.924Z,12.26
2019-03-24T14:42:34.210Z,12.21
2019-03-24T14:45:08.062Z,12.22
2019-03-24T14:48:13.148Z,12.08
2019-03-24T14:50:54.448Z,12.13
2019-03-24T14:53:23.470Z,12.09
2019-03-24T14:55:58.372Z,12.18
2019-03-24T14:58:31.260Z,12.12
2019-03-24T15:01:04.000Z,12.22
2019-03-24T15:03:36.905Z,12.41
2019-03-24T15:06:09.614Z,12.72
2019-03-24T15:08:44.171Z,13.14
2019-03-24T15:11:18.999Z,13.65
2019-03-24T15:14:08.598Z,14.01
2019-03-24T15:20:49.449Z,13.95
2019-03-24T16:07:34.391Z,12.96
2019-03-24T16:10:34.722Z,12.88
2019-03-24T16:12:56.095Z,12.53
2019-03-24T16:16:15.829Z,12.50
2019-03-24T16:18:57.340Z,12.24
2019-03-24T16:22:06.043Z,12.02
2019-03-24T16:24:28.368Z,12.03
2019-03-24T16:27:14.154Z,12.11
2019-03-24T16:33:02.788Z,11.95
2019-03-24T16:36:21.435Z,11.91
2019-03-24T18:30:16.457Z,10.03
2019-03-24T18:32:50.907Z,9.89
2019-03-24T18:35:24.082Z,9.76
2019-03-24T18:37:57.328Z,9.64
2019-03-24T18:40:32.211Z,9.58
2019-03-24T18:43:05.208Z,9.67
2019-03-24T18:45:56.667Z,9.70
2019-03-24T18:48:33.851Z,9.72
2019-03-24T18:51:13.721Z,9.72
2019-03-24T18:53:46.639Z,9.70
2019-03-24T18:56:23.198Z,9.71
2019-03-24T18:58:56.244Z,9.72
2019-03-24T19:01:29.311Z,9.71
2019-03-24T19:04:02.549Z,9.58
2019-03-24T19:06:36.386Z,9.65
2019-03-24T19:09:11.014Z,9.69
2019-03-24T19:11:43.878Z,9.64
2019-03-24T19:14:16.641Z,9.53
2019-03-24T19:16:49.354Z,9.40
2019-03-24T19:19:22.088Z,9.37
2019-03-24T19:21:54.869Z,9.34
2019-03-24T19:24:27.751Z,9.26
2019-03-24T19:27:03.781Z,9.09
2019-03-24T19:29:36.620Z,8.93
2019-03-24T19:32:09.674Z,8.78
2019-03-24T19:34:44.675Z,8.82
2019-03-24T19:37:17.521Z,8.75
2019-03-24T19:39:50.292Z,8.67
2019-03-24T19:42:23.266Z,8.70
2019-03-24T19:44:56.153Z,8.45
2019-03-24T19:47:28.991Z,8.58
2019-03-24T19:50:02.034Z,8.76
2019-03-24T19:52:44.367Z,8.84
2019-03-24T19:55:12.471Z,8.73
2019-03-24T19:57:47.358Z,8.66
2019-03-24T20:00:19.837Z,8.50
2019-03-24T20:02:52.649Z,8.38
2019-03-24T20:05:26.972Z,8.16
2019-03-24T20:08:00.227Z,8.04
2019-03-24T20:10:32.983Z,7.75
2019-03-24T20:13:05.985Z,7.75
2019-03-24T20:15:38.697Z,7.65
2019-03-24T20:18:11.467Z,7.65
2019-03-24T20:20:44.302Z,7.49
2019-03-24T20:23:17.037Z,7.46
2019-03-24T20:25:49.926Z,7.42
2019-03-24T20:28:22.635Z,7.18
2019-03-24T20:30:55.349Z,7.09
2019-03-24T20:33:28.174Z,6.95
2019-03-24T20:36:01.729Z,6.83
2019-03-24T20:38:34.557Z,6.89
2019-03-24T20:41:07.325Z,6.92
2019-03-24T20:43:40.170Z,6.85
2019-03-24T20:46:12.869Z,6.75
2019-03-24T20:48:45.698Z,6.71
2019-03-24T20:51:18.591Z,6.69
2019-03-24T20:53:51.356Z,6.60
2019-03-24T20:56:24.149Z,6.44
2019-03-24T20:58:57.035Z,6.37
2019-03-24T21:01:29.899Z,6.28
2019-03-24T21:04:02.776Z,6.36
2019-03-24T21:06:35.625Z,6.16
2019-03-24T21:09:10.821Z,6.15
2019-03-24T21:11:44.033Z,6.14
2019-03-24T21:14:16.875Z,6.15
2019-03-24T21:16:49.605Z,6.03
2019-03-24T21:19:22.945Z,6.00
2019-03-24T21:21:55.631Z,5.97
2019-03-24T21:24:28.432Z,5.96
2019-03-24T21:27:01.165Z,6.13
2019-03-24T21:29:34.086Z,6.10
2019-03-24T21:32:06.780Z,6.04
2019-03-24T21:34:39.564Z,5.87
2019-03-24T21:37:12.280Z,5.83
2019-03-24T21:39:45.096Z,5.75
2019-03-24T21:42:17.799Z,5.68
2019-03-24T21:44:51.775Z,5.68
2019-03-24T21:47:24.462Z,5.66
2019-03-24T21:49:57.189Z,5.62
2019-03-24T21:52:29.921Z,5.39
2019-03-24T21:55:02.602Z,5.13
2019-03-24T21:57:35.240Z,5.13
2019-03-24T22:00:10.479Z,5.12
2019-03-24T22:02:43.209Z,5.10
2019-03-24T22:05:15.904Z,5.00
2019-03-24T22:07:48.638Z,4.90
2019-03-24T22:10:21.420Z,4.69
2019-03-24T22:12:54.112Z,4.71
2019-03-24T22:15:26.832Z,4.58
2019-03-24T22:17:59.585Z,4.55
2019-03-24T22:20:32.324Z,4.39
2019-03-24T22:23:05.054Z,4.30
2019-03-24T22:25:37.694Z,4.25
2019-03-24T22:28:10.375Z,4.30
2019-03-24T22:30:43.144Z,4.16
2019-03-24T22:33:15.876Z,4.06
2019-03-24T22:35:48.541Z,4.00
2019-03-24T22:38:21.336Z,3.97
2019-03-24T22:40:55.582Z,3.95
2019-03-24T22:43:28.311Z,3.98
2019-03-24T22:46:01.041Z,4.15
2019-03-24T22:48:33.830Z,4.26
2019-03-24T22:51:06.692Z,4.24
2019-03-24T22:53:39.492Z,4.18
2019-03-24T22:56:12.204Z,4.04
2019-03-24T22:58:44.972Z,3.96
2019-03-24T23:01:18.996Z,3.88
2019-03-24T23:03:51.924Z,3.77
2019-03-24T23:06:24.684Z,3.66
2019-03-24T23:08:57.513Z,3.56
2019-03-24T23:11:30.278Z,3.44
2019-03-24T23:14:03.068Z,3.35
2019-03-24T23:16:35.947Z,3.30
2019-03-24T23:19:09.649Z,3.29
2019-03-24T23:21:44.063Z,3.25
2019-03-24T23:24:16.821Z,3.18
2019-03-24T23:26:49.597Z,3.10
2019-03-24T23:29:22.368Z,3.08
2019-03-24T23:31:55.279Z,2.97
2019-03-24T23:34:28.019Z,2.91
2019-03-24T23:37:00.703Z,2.90
2019-03-24T23:39:33.453Z,2.91
2019-03-24T23:42:06.408Z,2.88
2019-03-24T23:44:39.053Z,2.78
2019-03-24T23:47:11.903Z,2.78
2019-03-24T23:49:44.659Z,2.83
2019-03-24T23:52:17.459Z,2.84
2019-03-24T23:54:50.171Z,2.84
2019-03-24T23:57:22.855Z,2.84
2019-03-24T23:59:55.605Z,2.82
